sensor_id;sensor_type;location;lat;lon;timestamp;temperature;humidity
68011;DHT22;54794;48.348;7.878;2022-12-10T00:01:48;5.00;70.00
68011;DHT22;54794;48.348;7.878;2022-12-10T00:04:16;4.90;70.00
68011;DHT22;54794;48.348;7.878;2022-12-10T00:06:43;5.00;70.10
68011;DHT22;54794;48.348;7.878;2022-12-10T00:09:13;4.90;70.00
68011;DHT22;54794;48.348;7.878;2022-12-10T00:11:42;5.00;70.00
68011;DHT22;54794;48.348;7.878;2022-12-10T00:14:11;5.00;70.10
68011;DHT22;54794;48.348;7.878;2022-12-10T00:16:39;5.50;70.40
68011;DHT22;54794;48.348;7.878;2022-12-10T00:19:06;4.90;70.00
68011;DHT22;54794;48.348;7.878;2022-12-10T00:21:35;5.50;70.40
68011;DHT22;54794;48.348;7.878;2022-12-10T00:24:04;5.00;70.10
68011;DHT22;54794;48.348;7.878;2022-12-10T00:26:34;5.00;70.20
68011;DHT22;54794;48.348;7.878;2022-12-10T00:29:04;5.00;70.20
68011;DHT22;54794;48.348;7.878;2022-12-10T00:31:36;5.00;70.20
68011;DHT22;54794;48.348;7.878;2022-12-10T00:34:06;5.00;70.20
68011;DHT22;54794;48.348;7.878;2022-12-10T00:36:38;5.20;70.30
68011;DHT22;54794;48.348;7.878;2022-12-10T00:39:10;5.10;70.20
68011;DHT22;54794;48.348;7.878;2022-12-10T00:41:39;5.40;70.40
68011;DHT22;54794;48.348;7.878;2022-12-10T00:44:06;5.40;70.40
68011;DHT22;54794;48.348;7.878;2022-12-10T00:46:33;5.00;70.30
68011;DHT22;54794;48.348;7.878;2022-12-10T00:49:00;5.20;70.10
68011;DHT22;54794;48.348;7.878;2022-12-10T00:51:28;5.60;70.40
68011;DHT22;54794;48.348;7.878;2022-12-10T00:53:56;5.60;70.40
68011;DHT22;54794;48.348;7.878;2022-12-10T00:56:26;5.10;70.20
68011;DHT22;54794;48.348;7.878;2022-12-10T00:58:55;5.30;70.30
68011;DHT22;54794;48.348;7.878;2022-12-10T01:01:25;5.40;70.30
68011;DHT22;54794;48.348;7.878;2022-12-10T01:03:56;5.10;70.30
68011;DHT22;54794;48.348;7.878;2022-12-10T01:06:33;5.00;70.00
68011;DHT22;54794;48.348;7.878;2022-12-10T01:09:10;5.10;70.00
68011;DHT22;54794;48.348;7.878;2022-12-10T01:11:41;5.00;70.00
68011;DHT22;54794;48.348;7.878;2022-12-10T01:14:11;5.00;70.00
68011;DHT22;54794;48.348;7.878;2022-12-10T01:16:40;4.90;69.90
68011;DHT22;54794;48.348;7.878;2022-12-10T01:19:07;4.90;69.90
68011;DHT22;54794;48.348;7.878;2022-12-10T01:21:35;5.00;70.50
68011;DHT22;54794;48.348;7.878;2022-12-10T01:24:02;4.90;70.00
68011;DHT22;54794;48.348;7.878;2022-12-10T01:26:32;4.90;70.00
68011;DHT22;54794;48.348;7.878;2022-12-10T01:29:01;4.90;70.00
68011;DHT22;54794;48.348;7.878;2022-12-10T01:31:34;4.90;70.00
68011;DHT22;54794;48.348;7.878;2022-12-10T01:34:04;5.40;70.30
68011;DHT22;54794;48.348;7.878;2022-12-10T01:36:37;4.90;70.10
68011;DHT22;54794;48.348;7.878;2022-12-10T01:39:08;4.90;70.60
68011;DHT22;54794;48.348;7.878;2022-12-10T01:41:40;5.50;70.40
68011;DHT22;54794;48.348;7.878;2022-12-10T01:46:37;4.90;70.10
68011;DHT22;54794;48.348;7.878;2022-12-10T01:49:08;4.90;70.20
68011;DHT22;54794;48.348;7.878;2022-12-10T01:51:40;5.40;70.40
68011;DHT22;54794;48.348;7.878;2022-12-10T01:54:12;4.90;70.10
68011;DHT22;54794;48.348;7.878;2022-12-10T01:56:45;4.90;70.20
68011;DHT22;54794;48.348;7.878;2022-12-10T01:59:17;4.90;70.20
68011;DHT22;54794;48.348;7.878;2022-12-10T02:05:23;4.90;70.20
68011;DHT22;54794;48.348;7.878;2022-12-10T02:13:39;4.90;70.10
68011;DHT22;54794;48.348;7.878;2022-12-10T02:16:40;5.00;70.20
68011;DHT22;54794;48.348;7.878;2022-12-10T02:19:20;4.90;70.10
68011;DHT22;54794;48.348;7.878;2022-12-10T02:21:52;5.00;70.10
68011;DHT22;54794;48.348;7.878;2022-12-10T02:24:27;5.10;70.10
68011;DHT22;54794;48.348;7.878;2022-12-10T02:27:18;4.90;70.10
68011;DHT22;54794;48.348;7.878;2022-12-10T02:29:54;5.20;70.40
68011;DHT22;54794;48.348;7.878;2022-12-10T02:32:25;5.10;70.80
68011;DHT22;54794;48.348;7.878;2022-12-10T02:35:00;5.30;70.50
68011;DHT22;54794;48.348;7.878;2022-12-10T02:37:36;4.90;70.30
68011;DHT22;54794;48.348;7.878;2022-12-10T02:40:15;4.90;70.30
68011;DHT22;54794;48.348;7.878;2022-12-10T02:42:48;5.40;70.50
68011;DHT22;54794;48.348;7.878;2022-12-10T02:45:18;4.90;70.20
68011;DHT22;54794;48.348;7.878;2022-12-10T02:47:48;4.90;70.30
68011;DHT22;54794;48.348;7.878;2022-12-10T02:50:18;4.90;70.30
68011;DHT22;54794;48.348;7.878;2022-12-10T02:52:46;4.90;70.20
68011;DHT22;54794;48.348;7.878;2022-12-10T02:55:13;5.30;70.50
68011;DHT22;54794;48.348;7.878;2022-12-10T03:01:03;5.00;70.40
68011;DHT22;54794;48.348;7.878;2022-12-10T03:03:53;4.90;70.10
68011;DHT22;54794;48.348;7.878;2022-12-10T03:06:32;4.90;70.10
68011;DHT22;54794;48.348;7.878;2022-12-10T03:09:14;5.10;70.20
68011;DHT22;54794;48.348;7.878;2022-12-10T03:11:47;4.90;70.20
68011;DHT22;54794;48.348;7.878;2022-12-10T03:14:25;5.50;70.50
68011;DHT22;54794;48.348;7.878;2022-12-10T03:16:58;5.40;70.40
68011;DHT22;54794;48.348;7.878;2022-12-10T03:19:37;4.90;70.20
68011;DHT22;54794;48.348;7.878;2022-12-10T03:22:11;4.90;70.30
68011;DHT22;54794;48.348;7.878;2022-12-10T03:24:40;5.40;70.50
68011;DHT22;54794;48.348;7.878;2022-12-10T03:27:11;4.90;70.30
68011;DHT22;54794;48.348;7.878;2022-12-10T03:29:49;4.90;70.30
68011;DHT22;54794;48.348;7.878;2022-12-10T03:32:21;5.50;70.70
68011;DHT22;54794;48.348;7.878;2022-12-10T03:34:51;4.90;70.30
68011;DHT22;54794;48.348;7.878;2022-12-10T03:37:21;5.60;70.60
68011;DHT22;54794;48.348;7.878;2022-12-10T03:39:50;5.00;70.40
68011;DHT22;54794;48.348;7.878;2022-12-10T03:42:18;5.00;70.40
68011;DHT22;54794;48.348;7.878;2022-12-10T03:44:45;5.20;70.50
68011;DHT22;54794;48.348;7.878;2022-12-10T03:47:16;5.00;70.40
68011;DHT22;54794;48.348;7.878;2022-12-10T03:49:43;5.00;70.40
68011;DHT22;54794;48.348;7.878;2022-12-10T03:52:11;5.00;70.40
68011;DHT22;54794;48.348;7.878;2022-12-10T03:54:38;5.50;70.70
68011;DHT22;54794;48.348;7.878;2022-12-10T03:57:05;5.30;70.50
68011;DHT22;54794;48.348;7.878;2022-12-10T03:59:32;5.00;70.30
68011;DHT22;54794;48.348;7.878;2022-12-10T04:01:59;5.00;70.30
68011;DHT22;54794;48.348;7.878;2022-12-10T04:04:26;5.00;70.40
68011;DHT22;54794;48.348;7.878;2022-12-10T04:06:53;5.50;70.60
68011;DHT22;54794;48.348;7.878;2022-12-10T04:09:20;5.50;70.60
68011;DHT22;54794;48.348;7.878;2022-12-10T04:11:47;5.10;70.40
68011;DHT22;54794;48.348;7.878;2022-12-10T04:14:14;5.00;70.30
68011;DHT22;54794;48.348;7.878;2022-12-10T04:17:00;5.70;70.70
68011;DHT22;54794;48.348;7.878;2022-12-10T04:19:27;5.30;70.40
68011;DHT22;54794;48.348;7.878;2022-12-10T04:21:54;5.00;70.30
68011;DHT22;54794;48.348;7.878;2022-12-10T04:24:39;5.00;70.30
68011;DHT22;54794;48.348;7.878;2022-12-10T04:27:30;5.00;70.30
68011;DHT22;54794;48.348;7.878;2022-12-10T04:29:59;5.70;70.70
68011;DHT22;54794;48.348;7.878;2022-12-10T04:32:28;5.80;70.80
68011;DHT22;54794;48.348;7.878;2022-12-10T04:34:56;5.00;70.40
68011;DHT22;54794;48.348;7.878;2022-12-10T04:37:25;5.20;70.50
68011;DHT22;54794;48.348;7.878;2022-12-10T04:39:53;5.00;70.40
68011;DHT22;54794;48.348;7.878;2022-12-10T04:42:21;5.10;70.40
68011;DHT22;54794;48.348;7.878;2022-12-10T04:44:49;5.10;70.40
68011;DHT22;54794;48.348;7.878;2022-12-10T04:47:16;5.10;70.40
68011;DHT22;54794;48.348;7.878;2022-12-10T04:49:43;5.10;70.50
68011;DHT22;54794;48.348;7.878;2022-12-10T04:52:12;5.30;70.60
68011;DHT22;54794;48.348;7.878;2022-12-10T04:54:41;5.20;70.50
68011;DHT22;54794;48.348;7.878;2022-12-10T04:57:10;5.50;70.70
68011;DHT22;54794;48.348;7.878;2022-12-10T04:59:38;5.10;71.00
68011;DHT22;54794;48.348;7.878;2022-12-10T05:02:05;5.10;70.40
68011;DHT22;54794;48.348;7.878;2022-12-10T05:04:32;5.10;70.40
68011;DHT22;54794;48.348;7.878;2022-12-10T05:06:59;5.40;70.60
68011;DHT22;54794;48.348;7.878;2022-12-10T05:09:26;5.10;70.30
68011;DHT22;54794;48.348;7.878;2022-12-10T05:11:54;5.10;70.40
68011;DHT22;54794;48.348;7.878;2022-12-10T05:14:20;5.90;70.80
68011;DHT22;54794;48.348;7.878;2022-12-10T05:16:50;5.10;70.40
68011;DHT22;54794;48.348;7.878;2022-12-10T05:19:18;5.10;70.40
68011;DHT22;54794;48.348;7.878;2022-12-10T05:21:49;5.70;70.80
68011;DHT22;54794;48.348;7.878;2022-12-10T05:24:35;5.80;71.40
68011;DHT22;54794;48.348;7.878;2022-12-10T05:27:02;5.90;71.40
68011;DHT22;54794;48.348;7.878;2022-12-10T05:29:29;5.10;70.40
68011;DHT22;54794;48.348;7.878;2022-12-10T05:31:56;5.30;70.60
68011;DHT22;54794;48.348;7.878;2022-12-10T05:34:23;5.50;70.60
68011;DHT22;54794;48.348;7.878;2022-12-10T05:36:50;5.50;70.60
68011;DHT22;54794;48.348;7.878;2022-12-10T05:39:16;5.10;70.40
68011;DHT22;54794;48.348;7.878;2022-12-10T05:41:43;5.10;70.40
68011;DHT22;54794;48.348;7.878;2022-12-10T05:44:12;5.70;70.80
68011;DHT22;54794;48.348;7.878;2022-12-10T05:46:39;5.30;70.60
68011;DHT22;54794;48.348;7.878;2022-12-10T05:49:06;5.40;70.60
68011;DHT22;54794;48.348;7.878;2022-12-10T05:51:35;5.30;70.60
68011;DHT22;54794;48.348;7.878;2022-12-10T05:54:04;5.60;70.70
68011;DHT22;54794;48.348;7.878;2022-12-10T05:56:33;5.20;70.50
68011;DHT22;54794;48.348;7.878;2022-12-10T05:59:02;5.60;70.70
68011;DHT22;54794;48.348;7.878;2022-12-10T06:01:32;5.20;70.50
68011;DHT22;54794;48.348;7.878;2022-12-10T06:04:02;5.20;70.50
68011;DHT22;54794;48.348;7.878;2022-12-10T06:06:36;5.20;70.50
68011;DHT22;54794;48.348;7.878;2022-12-10T06:09:05;5.20;70.50
68011;DHT22;54794;48.348;7.878;2022-12-10T06:11:34;5.70;70.80
68011;DHT22;54794;48.348;7.878;2022-12-10T06:14:01;5.20;70.60
68011;DHT22;54794;48.348;7.878;2022-12-10T06:16:28;5.20;70.50
68011;DHT22;54794;48.348;7.878;2022-12-10T06:18:56;5.20;70.50
68011;DHT22;54794;48.348;7.878;2022-12-10T06:21:24;5.60;71.20
68011;DHT22;54794;48.348;7.878;2022-12-10T06:23:51;5.60;70.70
68011;DHT22;54794;48.348;7.878;2022-12-10T06:26:21;5.20;70.50
68011;DHT22;54794;48.348;7.878;2022-12-10T06:28:52;5.50;70.70
68011;DHT22;54794;48.348;7.878;2022-12-10T06:31:20;5.20;70.50
68011;DHT22;54794;48.348;7.878;2022-12-10T06:33:48;5.20;70.50
68011;DHT22;54794;48.348;7.878;2022-12-10T06:36:17;5.50;70.70
68011;DHT22;54794;48.348;7.878;2022-12-10T06:38:45;5.20;70.60
68011;DHT22;54794;48.348;7.878;2022-12-10T06:41:14;5.70;70.80
68011;DHT22;54794;48.348;7.878;2022-12-10T06:43:42;5.60;70.80
68011;DHT22;54794;48.348;7.878;2022-12-10T06:46:11;5.20;70.50
68011;DHT22;54794;48.348;7.878;2022-12-10T06:48:41;5.70;70.80
68011;DHT22;54794;48.348;7.878;2022-12-10T06:51:10;5.10;70.50
68011;DHT22;54794;48.348;7.878;2022-12-10T06:53:39;5.20;70.50
68011;DHT22;54794;48.348;7.878;2022-12-10T06:56:09;6.10;71.00
68011;DHT22;54794;48.348;7.878;2022-12-10T06:58:39;5.20;70.60
68011;DHT22;54794;48.348;7.878;2022-12-10T07:01:10;5.10;70.50
68011;DHT22;54794;48.348;7.878;2022-12-10T07:03:43;5.20;70.60
68011;DHT22;54794;48.348;7.878;2022-12-10T07:06:10;5.60;70.80
68011;DHT22;54794;48.348;7.878;2022-12-10T07:08:38;5.20;70.50
68011;DHT22;54794;48.348;7.878;2022-12-10T07:11:07;5.20;70.50
68011;DHT22;54794;48.348;7.878;2022-12-10T07:13:36;5.40;70.60
68011;DHT22;54794;48.348;7.878;2022-12-10T07:16:15;5.20;70.50
68011;DHT22;54794;48.348;7.878;2022-12-10T07:18:47;5.20;70.60
68011;DHT22;54794;48.348;7.878;2022-12-10T07:21:23;5.80;70.80
68011;DHT22;54794;48.348;7.878;2022-12-10T07:23:55;5.20;70.50
68011;DHT22;54794;48.348;7.878;2022-12-10T07:26:25;5.60;70.80
68011;DHT22;54794;48.348;7.878;2022-12-10T07:28:55;5.20;70.50
68011;DHT22;54794;48.348;7.878;2022-12-10T07:31:22;5.20;70.60
68011;DHT22;54794;48.348;7.878;2022-12-10T07:33:51;5.70;70.80
68011;DHT22;54794;48.348;7.878;2022-12-10T07:36:20;5.70;70.90
68011;DHT22;54794;48.348;7.878;2022-12-10T07:38:52;5.20;70.60
68011;DHT22;54794;48.348;7.878;2022-12-10T07:41:23;5.20;70.50
68011;DHT22;54794;48.348;7.878;2022-12-10T07:43:51;5.20;70.50
68011;DHT22;54794;48.348;7.878;2022-12-10T07:46:38;5.20;70.50
68011;DHT22;54794;48.348;7.878;2022-12-10T07:49:05;5.30;70.70
68011;DHT22;54794;48.348;7.878;2022-12-10T07:51:32;5.90;70.90
68011;DHT22;54794;48.348;7.878;2022-12-10T07:53:59;5.20;70.50
68011;DHT22;54794;48.348;7.878;2022-12-10T07:56:26;5.80;70.90
68011;DHT22;54794;48.348;7.878;2022-12-10T07:58:58;5.20;70.60
68011;DHT22;54794;48.348;7.878;2022-12-10T08:01:26;5.70;70.80
68011;DHT22;54794;48.348;7.878;2022-12-10T08:03:55;5.30;70.60
68011;DHT22;54794;48.348;7.878;2022-12-10T08:06:25;5.20;70.60
68011;DHT22;54794;48.348;7.878;2022-12-10T08:08:53;5.70;70.90
68011;DHT22;54794;48.348;7.878;2022-12-10T08:11:22;5.80;70.90
68011;DHT22;54794;48.348;7.878;2022-12-10T08:13:50;5.20;70.60
68011;DHT22;54794;48.348;7.878;2022-12-10T08:16:23;5.70;70.90
68011;DHT22;54794;48.348;7.878;2022-12-10T08:18:57;5.10;70.50
68011;DHT22;54794;48.348;7.878;2022-12-10T08:21:28;5.20;70.60
68011;DHT22;54794;48.348;7.878;2022-12-10T08:23:57;5.20;70.60
68011;DHT22;54794;48.348;7.878;2022-12-10T08:26:25;5.90;71.10
68011;DHT22;54794;48.348;7.878;2022-12-10T08:28:55;5.60;71.00
68011;DHT22;54794;48.348;7.878;2022-12-10T08:31:23;5.90;71.40
68011;DHT22;54794;48.348;7.878;2022-12-10T08:33:51;5.20;70.50
68011;DHT22;54794;48.348;7.878;2022-12-10T08:36:19;5.70;71.30
68011;DHT22;54794;48.348;7.878;2022-12-10T08:38:46;5.30;70.60
68011;DHT22;54794;48.348;7.878;2022-12-10T08:41:21;5.80;70.90
68011;DHT22;54794;48.348;7.878;2022-12-10T08:43:56;5.80;71.00
68011;DHT22;54794;48.348;7.878;2022-12-10T08:46:23;5.80;71.00
68011;DHT22;54794;48.348;7.878;2022-12-10T08:48:51;5.80;71.00
68011;DHT22;54794;48.348;7.878;2022-12-10T08:51:18;5.20;70.60
68011;DHT22;54794;48.348;7.878;2022-12-10T08:53:46;5.20;70.60
68011;DHT22;54794;48.348;7.878;2022-12-10T08:56:13;5.70;71.00
68011;DHT22;54794;48.348;7.878;2022-12-10T08:58:40;5.10;70.60
68011;DHT22;54794;48.348;7.878;2022-12-10T09:01:09;5.70;71.00
68011;DHT22;54794;48.348;7.878;2022-12-10T09:03:38;5.40;70.80
68011;DHT22;54794;48.348;7.878;2022-12-10T09:06:07;5.40;70.80
68011;DHT22;54794;48.348;7.878;2022-12-10T09:08:36;5.20;70.60
68011;DHT22;54794;48.348;7.878;2022-12-10T09:11:08;5.10;71.10
68011;DHT22;54794;48.348;7.878;2022-12-10T09:13:37;5.70;71.00
68011;DHT22;54794;48.348;7.878;2022-12-10T09:16:04;5.20;70.60
68011;DHT22;54794;48.348;7.878;2022-12-10T09:18:32;5.20;70.60
68011;DHT22;54794;48.348;7.878;2022-12-10T09:20:59;5.10;70.70
68011;DHT22;54794;48.348;7.878;2022-12-10T09:23:25;5.40;70.80
68011;DHT22;54794;48.348;7.878;2022-12-10T09:25:52;5.20;70.70
68011;DHT22;54794;48.348;7.878;2022-12-10T09:28:19;5.20;70.70
68011;DHT22;54794;48.348;7.878;2022-12-10T09:30:55;5.20;70.60
68011;DHT22;54794;48.348;7.878;2022-12-10T09:33:23;5.20;70.60
68011;DHT22;54794;48.348;7.878;2022-12-10T09:35:51;5.90;71.00
68011;DHT22;54794;48.348;7.878;2022-12-10T09:38:18;6.00;71.10
68011;DHT22;54794;48.348;7.878;2022-12-10T09:41:00;5.20;70.60
68011;DHT22;54794;48.348;7.878;2022-12-10T09:46:58;5.20;70.70
68011;DHT22;54794;48.348;7.878;2022-12-10T09:52:11;5.10;70.60
68011;DHT22;54794;48.348;7.878;2022-12-10T09:55:05;5.10;71.20
68011;DHT22;54794;48.348;7.878;2022-12-10T09:57:42;5.20;70.70
68011;DHT22;54794;48.348;7.878;2022-12-10T10:00:19;5.20;70.60
68011;DHT22;54794;48.348;7.878;2022-12-10T10:02:48;5.20;70.60
68011;DHT22;54794;48.348;7.878;2022-12-10T10:05:22;5.10;70.50
68011;DHT22;54794;48.348;7.878;2022-12-10T10:07:57;5.10;70.60
68011;DHT22;54794;48.348;7.878;2022-12-10T10:10:29;5.70;71.00
68011;DHT22;54794;48.348;7.878;2022-12-10T10:13:16;5.20;70.70
68011;DHT22;54794;48.348;7.878;2022-12-10T10:16:00;5.60;71.00
68011;DHT22;54794;48.348;7.878;2022-12-10T10:19:04;5.90;71.10
68011;DHT22;54794;48.348;7.878;2022-12-10T10:21:50;5.20;70.50
68011;DHT22;54794;48.348;7.878;2022-12-10T10:24:23;5.70;70.90
68011;DHT22;54794;48.348;7.878;2022-12-10T10:26:58;5.10;70.60
68011;DHT22;54794;48.348;7.878;2022-12-10T10:29:34;5.10;70.60
68011;DHT22;54794;48.348;7.878;2022-12-10T10:32:14;5.10;70.60
68011;DHT22;54794;48.348;7.878;2022-12-10T10:34:45;5.10;70.70
68011;DHT22;54794;48.348;7.878;2022-12-10T10:37:23;5.30;70.70
68011;DHT22;54794;48.348;7.878;2022-12-10T10:39:56;5.10;70.60
68011;DHT22;54794;48.348;7.878;2022-12-10T10:45:47;5.10;70.60
68011;DHT22;54794;48.348;7.878;2022-12-10T10:48:44;5.10;70.70
68011;DHT22;54794;48.348;7.878;2022-12-10T10:53:42;5.20;70.70
68011;DHT22;54794;48.348;7.878;2022-12-10T10:56:23;5.10;70.70
68011;DHT22;54794;48.348;7.878;2022-12-10T10:59:00;5.50;71.00
68011;DHT22;54794;48.348;7.878;2022-12-10T11:01:50;5.10;70.70
68011;DHT22;54794;48.348;7.878;2022-12-10T11:04:30;5.70;71.10
68011;DHT22;54794;48.348;7.878;2022-12-10T11:07:05;5.10;70.70
68011;DHT22;54794;48.348;7.878;2022-12-10T11:09:48;5.10;70.60
68011;DHT22;54794;48.348;7.878;2022-12-10T11:12:33;5.20;70.70
68011;DHT22;54794;48.348;7.878;2022-12-10T11:17:53;5.10;70.80
68011;DHT22;54794;48.348;7.878;2022-12-10T11:22:55;5.20;70.90
68011;DHT22;54794;48.348;7.878;2022-12-10T11:31:22;5.10;70.80
68011;DHT22;54794;48.348;7.878;2022-12-10T11:34:04;5.10;70.70
68011;DHT22;54794;48.348;7.878;2022-12-10T11:42:54;5.10;70.70
68011;DHT22;54794;48.348;7.878;2022-12-10T11:50:52;5.10;70.70
68011;DHT22;54794;48.348;7.878;2022-12-10T11:59:34;5.10;70.80
68011;DHT22;54794;48.348;7.878;2022-12-10T12:02:55;5.10;70.70
68011;DHT22;54794;48.348;7.878;2022-12-10T12:15:04;5.00;70.70
68011;DHT22;54794;48.348;7.878;2022-12-10T12:20:53;5.00;70.70
68011;DHT22;54794;48.348;7.878;2022-12-10T12:26:44;5.10;70.90
68011;DHT22;54794;48.348;7.878;2022-12-10T12:29:41;5.00;70.80
68011;DHT22;54794;48.348;7.878;2022-12-10T12:35:18;5.00;70.80
68011;DHT22;54794;48.348;7.878;2022-12-10T12:40:46;5.00;70.70
68011;DHT22;54794;48.348;7.878;2022-12-10T12:43:23;5.90;71.20
68011;DHT22;54794;48.348;7.878;2022-12-10T12:45:55;5.00;70.80
68011;DHT22;54794;48.348;7.878;2022-12-10T12:53:40;5.00;70.80
68011;DHT22;54794;48.348;7.878;2022-12-10T12:56:10;5.00;70.80
68011;DHT22;54794;48.348;7.878;2022-12-10T12:59:08;5.00;70.90
68011;DHT22;54794;48.348;7.878;2022-12-10T13:04:53;5.60;71.30
68011;DHT22;54794;48.348;7.878;2022-12-10T13:09:49;5.00;70.80
68011;DHT22;54794;48.348;7.878;2022-12-10T13:15:38;5.50;71.20
68011;DHT22;54794;48.348;7.878;2022-12-10T13:28:29;5.00;70.90
68011;DHT22;54794;48.348;7.878;2022-12-10T13:33:53;5.40;71.10
68011;DHT22;54794;48.348;7.878;2022-12-10T13:39:33;5.00;70.90
68011;DHT22;54794;48.348;7.878;2022-12-10T13:53:18;5.00;70.90
68011;DHT22;54794;48.348;7.878;2022-12-10T13:56:29;5.10;70.90
68011;DHT22;54794;48.348;7.878;2022-12-10T14:02:15;5.00;70.80
68011;DHT22;54794;48.348;7.878;2022-12-10T14:05:14;5.00;70.80
68011;DHT22;54794;48.348;7.878;2022-12-10T14:08:13;5.00;70.90
68011;DHT22;54794;48.348;7.878;2022-12-10T14:10:44;5.00;70.90
68011;DHT22;54794;48.348;7.878;2022-12-10T14:13:15;5.00;70.90
68011;DHT22;54794;48.348;7.878;2022-12-10T14:16:15;5.30;71.10
68011;DHT22;54794;48.348;7.878;2022-12-10T14:27:25;5.00;71.00
68011;DHT22;54794;48.348;7.878;2022-12-10T14:34:54;4.80;70.80
68011;DHT22;54794;48.348;7.878;2022-12-10T14:37:26;4.90;71.30
68011;DHT22;54794;48.348;7.878;2022-12-10T14:39:55;4.90;70.90
68011;DHT22;54794;48.348;7.878;2022-12-10T14:42:23;4.90;70.90
68011;DHT22;54794;48.348;7.878;2022-12-10T14:44:56;4.90;70.90
68011;DHT22;54794;48.348;7.878;2022-12-10T14:47:26;5.50;71.30
68011;DHT22;54794;48.348;7.878;2022-12-10T14:50:00;5.40;71.30
68011;DHT22;54794;48.348;7.878;2022-12-10T14:52:34;5.00;71.00
68011;DHT22;54794;48.348;7.878;2022-12-10T14:55:15;4.90;71.00
68011;DHT22;54794;48.348;7.878;2022-12-10T14:57:49;4.90;71.10
68011;DHT22;54794;48.348;7.878;2022-12-10T15:00:23;5.60;71.40
68011;DHT22;54794;48.348;7.878;2022-12-10T15:02:54;5.00;71.10
68011;DHT22;54794;48.348;7.878;2022-12-10T15:05:29;5.10;71.10
68011;DHT22;54794;48.348;7.878;2022-12-10T15:07:58;5.00;71.10
68011;DHT22;54794;48.348;7.878;2022-12-10T15:10:40;5.00;71.00
68011;DHT22;54794;48.348;7.878;2022-12-10T15:13:22;5.00;71.60
68011;DHT22;54794;48.348;7.878;2022-12-10T15:15:53;5.00;71.20
68011;DHT22;54794;48.348;7.878;2022-12-10T15:18:47;5.00;71.00
68011;DHT22;54794;48.348;7.878;2022-12-10T15:21:19;5.20;71.20
68011;DHT22;54794;48.348;7.878;2022-12-10T15:23:48;5.00;71.00
68011;DHT22;54794;48.348;7.878;2022-12-10T15:26:19;5.40;71.30
68011;DHT22;54794;48.348;7.878;2022-12-10T15:28:52;5.10;71.10
68011;DHT22;54794;48.348;7.878;2022-12-10T15:35:01;5.10;71.10
68011;DHT22;54794;48.348;7.878;2022-12-10T15:37:37;5.10;71.00
68011;DHT22;54794;48.348;7.878;2022-12-10T15:40:28;5.10;71.00
68011;DHT22;54794;48.348;7.878;2022-12-10T15:43:20;5.10;71.10
68011;DHT22;54794;48.348;7.878;2022-12-10T15:45:56;5.30;71.20
68011;DHT22;54794;48.348;7.878;2022-12-10T15:48:24;5.50;71.30
68011;DHT22;54794;48.348;7.878;2022-12-10T15:50:54;5.60;71.30
68011;DHT22;54794;48.348;7.878;2022-12-10T15:53:29;5.60;71.20
68011;DHT22;54794;48.348;7.878;2022-12-10T15:56:03;5.60;71.20
68011;DHT22;54794;48.348;7.878;2022-12-10T15:58:30;5.10;70.90
68011;DHT22;54794;48.348;7.878;2022-12-10T16:00:57;5.90;71.30
68011;DHT22;54794;48.348;7.878;2022-12-10T16:03:24;5.60;71.10
68011;DHT22;54794;48.348;7.878;2022-12-10T16:05:53;5.90;71.20
68011;DHT22;54794;48.348;7.878;2022-12-10T16:08:21;5.20;70.80
68011;DHT22;54794;48.348;7.878;2022-12-10T16:11:02;5.20;70.80
68011;DHT22;54794;48.348;7.878;2022-12-10T16:13:38;5.20;70.70
68011;DHT22;54794;48.348;7.878;2022-12-10T16:16:09;5.50;70.80
68011;DHT22;54794;48.348;7.878;2022-12-10T16:18:37;5.50;70.80
68011;DHT22;54794;48.348;7.878;2022-12-10T16:21:04;5.20;70.60
68011;DHT22;54794;48.348;7.878;2022-12-10T16:23:34;5.20;70.60
68011;DHT22;54794;48.348;7.878;2022-12-10T16:26:02;5.20;70.60
68011;DHT22;54794;48.348;7.878;2022-12-10T16:28:38;5.60;70.80
68011;DHT22;54794;48.348;7.878;2022-12-10T16:31:07;5.30;70.60
68011;DHT22;54794;48.348;7.878;2022-12-10T16:33:37;5.90;71.50
68011;DHT22;54794;48.348;7.878;2022-12-10T16:36:03;5.20;70.50
68011;DHT22;54794;48.348;7.878;2022-12-10T16:38:30;5.20;70.50
68011;DHT22;54794;48.348;7.878;2022-12-10T16:40:57;5.20;70.50
68011;DHT22;54794;48.348;7.878;2022-12-10T16:43:26;5.70;70.80
68011;DHT22;54794;48.348;7.878;2022-12-10T16:45:54;5.60;70.70
68011;DHT22;54794;48.348;7.878;2022-12-10T16:48:21;5.20;70.50
68011;DHT22;54794;48.348;7.878;2022-12-10T16:50:49;5.20;70.50
68011;DHT22;54794;48.348;7.878;2022-12-10T16:53:20;5.20;70.50
68011;DHT22;54794;48.348;7.878;2022-12-10T16:55:52;5.30;70.60
68011;DHT22;54794;48.348;7.878;2022-12-10T16:58:19;5.30;70.60
68011;DHT22;54794;48.348;7.878;2022-12-10T17:00:47;5.80;70.80
68011;DHT22;54794;48.348;7.878;2022-12-10T17:03:17;5.20;70.40
68011;DHT22;54794;48.348;7.878;2022-12-10T17:08:17;5.20;70.50
68011;DHT22;54794;48.348;7.878;2022-12-10T17:10:44;5.30;70.50
68011;DHT22;54794;48.348;7.878;2022-12-10T17:13:31;5.20;70.40
68011;DHT22;54794;48.348;7.878;2022-12-10T17:15:59;5.80;70.70
68011;DHT22;54794;48.348;7.878;2022-12-10T17:18:26;5.20;70.40
68011;DHT22;54794;48.348;7.878;2022-12-10T17:20:53;5.20;70.50
68011;DHT22;54794;48.348;7.878;2022-12-10T17:23:34;5.60;70.70
68011;DHT22;54794;48.348;7.878;2022-12-10T17:26:11;5.10;70.40
68011;DHT22;54794;48.348;7.878;2022-12-10T17:28:48;5.90;70.90
68011;DHT22;54794;48.348;7.878;2022-12-10T17:31:14;5.60;70.70
68011;DHT22;54794;48.348;7.878;2022-12-10T17:33:41;5.80;70.90
68011;DHT22;54794;48.348;7.878;2022-12-10T17:36:15;5.30;70.60
68011;DHT22;54794;48.348;7.878;2022-12-10T17:38:43;5.20;70.60
68011;DHT22;54794;48.348;7.878;2022-12-10T17:41:10;5.20;70.60
68011;DHT22;54794;48.348;7.878;2022-12-10T17:43:38;5.20;70.60
68011;DHT22;54794;48.348;7.878;2022-12-10T17:46:07;6.00;71.00
68011;DHT22;54794;48.348;7.878;2022-12-10T17:48:36;5.80;70.90
68011;DHT22;54794;48.348;7.878;2022-12-10T17:51:03;5.90;70.90
68011;DHT22;54794;48.348;7.878;2022-12-10T17:53:30;5.20;70.50
68011;DHT22;54794;48.348;7.878;2022-12-10T17:55:58;5.20;70.50
68011;DHT22;54794;48.348;7.878;2022-12-10T17:58:26;5.60;70.70
68011;DHT22;54794;48.348;7.878;2022-12-10T18:00:53;5.20;70.50
68011;DHT22;54794;48.348;7.878;2022-12-10T18:03:21;5.80;70.80
68011;DHT22;54794;48.348;7.878;2022-12-10T18:05:48;5.20;70.50
68011;DHT22;54794;48.348;7.878;2022-12-10T18:08:15;5.50;70.60
68011;DHT22;54794;48.348;7.878;2022-12-10T18:10:44;5.20;70.50
68011;DHT22;54794;48.348;7.878;2022-12-10T18:13:11;5.80;70.80
68011;DHT22;54794;48.348;7.878;2022-12-10T18:15:38;5.30;70.50
68011;DHT22;54794;48.348;7.878;2022-12-10T18:18:04;5.20;70.50
68011;DHT22;54794;48.348;7.878;2022-12-10T18:20:33;5.30;70.60
68011;DHT22;54794;48.348;7.878;2022-12-10T18:23:04;5.30;70.50
68011;DHT22;54794;48.348;7.878;2022-12-10T18:25:33;5.30;70.60
68011;DHT22;54794;48.348;7.878;2022-12-10T18:28:02;5.30;70.50
68011;DHT22;54794;48.348;7.878;2022-12-10T18:30:32;5.30;70.50
68011;DHT22;54794;48.348;7.878;2022-12-10T18:32:59;5.40;70.50
68011;DHT22;54794;48.348;7.878;2022-12-10T18:35:26;5.30;70.40
68011;DHT22;54794;48.348;7.878;2022-12-10T18:37:56;5.40;70.40